sensor_id;sensor_type;location;lat;lon;timestamp;pressure;altitude;pressure_sealevel;temperature
78225;BMP280;67498;53.650;10.090;2023-05-28T00:02:04;102142.53;;;11.43
78225;BMP280;67498;53.650;10.090;2023-05-28T00:04:31;102138.78;;;11.37
78225;BMP280;67498;53.650;10.090;2023-05-28T00:06:56;102129.41;;;11.29
78225;BMP280;67498;53.650;10.090;2023-05-28T00:09:21;102133.09;;;11.24
78225;BMP280;67498;53.650;10.090;2023-05-28T00:11:47;102134.56;;;11.25
78225;BMP280;67498;53.650;10.090;2023-05-28T00:14:12;102137.13;;;11.14
78225;BMP280;67498;53.650;10.090;2023-05-28T00:16:37;102144.97;;;11.18
78225;BMP280;67498;53.650;10.090;2023-05-28T00:19:03;102138.22;;;11.13
78225;BMP280;67498;53.650;10.090;2023-05-28T00:21:29;102120.59;;;11.03
78225;BMP280;67498;53.650;10.090;2023-05-28T00:23:57;102139.69;;;11.07
78225;BMP280;67498;53.650;10.090;2023-05-28T00:26:23;102131.78;;;11.03
78225;BMP280;67498;53.650;10.090;2023-05-28T00:28:48;102131.00;;;10.99
78225;BMP280;67498;53.650;10.090;2023-05-28T00:31:13;102145.59;;;11.00
78225;BMP280;67498;53.650;10.090;2023-05-28T00:33:38;102125.00;;;10.92
78225;BMP280;67498;53.650;10.090;2023-05-28T00:36:04;102126.44;;;10.89
78225;BMP280;67498;53.650;10.090;2023-05-28T00:38:29;102134.28;;;10.89
78225;BMP280;67498;53.650;10.090;2023-05-28T00:40:54;102130.94;;;10.89
78225;BMP280;67498;53.650;10.090;2023-05-28T00:43:20;102127.91;;;10.87
78225;BMP280;67498;53.650;10.090;2023-05-28T00:45:46;102115.53;;;10.80
78225;BMP280;67498;53.650;10.090;2023-05-28T00:48:13;102124.13;;;10.81
78225;BMP280;67498;53.650;10.090;2023-05-28T00:50:38;102121.16;;;10.82
78225;BMP280;67498;53.650;10.090;2023-05-28T00:53:04;102118.56;;;10.86
78225;BMP280;67498;53.650;10.090;2023-05-28T00:55:29;102115.97;;;10.86
78225;BMP280;67498;53.650;10.090;2023-05-28T00:57:55;102115.19;;;10.82
78225;BMP280;67498;53.650;10.090;2023-05-28T01:00:21;102114.81;;;10.83
78225;BMP280;67498;53.650;10.090;2023-05-28T01:02:46;102112.13;;;10.76
78225;BMP280;67498;53.650;10.090;2023-05-28T01:05:11;102114.75;;;10.76
78225;BMP280;67498;53.650;10.090;2023-05-28T01:07:37;102114.72;;;10.72
78225;BMP280;67498;53.650;10.090;2023-05-28T01:10:03;102111.69;;;10.70
78225;BMP280;67498;53.650;10.090;2023-05-28T01:12:30;102113.19;;;10.68
78225;BMP280;67498;53.650;10.090;2023-05-28T01:14:57;102125.50;;;10.71
78225;BMP280;67498;53.650;10.090;2023-05-28T01:17:23;102106.75;;;10.58
78225;BMP280;67498;53.650;10.090;2023-05-28T01:19:48;102109.78;;;10.64
78225;BMP280;67498;53.650;10.090;2023-05-28T01:22:16;102099.69;;;10.62
78225;BMP280;67498;53.650;10.090;2023-05-28T01:24:43;102104.91;;;10.62
78225;BMP280;67498;53.650;10.090;2023-05-28T01:27:10;102114.25;;;10.60
78225;BMP280;67498;53.650;10.090;2023-05-28T01:29:36;102108.63;;;10.61
78225;BMP280;67498;53.650;10.090;2023-05-28T01:32:02;102101.84;;;10.53
78225;BMP280;67498;53.650;10.090;2023-05-28T01:34:27;102112.31;;;10.57
78225;BMP280;67498;53.650;10.090;2023-05-28T01:36:58;102109.31;;;10.54
78225;BMP280;67498;53.650;10.090;2023-05-28T01:39:25;102101.47;;;10.51
78225;BMP280;67498;53.650;10.090;2023-05-28T01:41:51;102089.78;;;10.41
78225;BMP280;67498;53.650;10.090;2023-05-28T01:44:18;102085.25;;;10.35
78225;BMP280;67498;53.650;10.090;2023-05-28T01:46:45;102091.97;;;10.36
78225;BMP280;67498;53.650;10.090;2023-05-28T01:49:11;102097.56;;;10.34
78225;BMP280;67498;53.650;10.090;2023-05-28T01:51:37;102101.28;;;10.37
78225;BMP280;67498;53.650;10.090;2023-05-28T01:54:02;102091.91;;;10.32
78225;BMP280;67498;53.650;10.090;2023-05-28T01:56:28;102097.16;;;10.32
78225;BMP280;67498;53.650;10.090;2023-05-28T01:58:53;102083.69;;;10.26
78225;BMP280;67498;53.650;10.090;2023-05-28T02:01:27;102085.06;;;10.20
78225;BMP280;67498;53.650;10.090;2023-05-28T02:03:54;102084.31;;;10.20
78225;BMP280;67498;53.650;10.090;2023-05-28T02:06:21;102094.75;;;10.20
78225;BMP280;67498;53.650;10.090;2023-05-28T02:08:46;102103.34;;;10.20
78225;BMP280;67498;53.650;10.090;2023-05-28T02:11:11;102091.66;;;10.11
78225;BMP280;67498;53.650;10.090;2023-05-28T02:13:36;102097.28;;;10.13
78225;BMP280;67498;53.650;10.090;2023-05-28T02:16:04;102093.53;;;10.10
78225;BMP280;67498;53.650;10.090;2023-05-28T02:18:31;102090.09;;;10.02
78225;BMP280;67498;53.650;10.090;2023-05-28T02:20:57;102083.34;;;10.01
78225;BMP280;67498;53.650;10.090;2023-05-28T02:23:22;102090.09;;;10.02
78225;BMP280;67498;53.650;10.090;2023-05-28T02:25:47;102085.56;;;9.99
78225;BMP280;67498;53.650;10.090;2023-05-28T02:28:12;102088.06;;;9.92
78225;BMP280;67498;53.650;10.090;2023-05-28T02:30:38;102090.00;;;9.95
78225;BMP280;67498;53.650;10.090;2023-05-28T02:33:03;102086.97;;;9.93
78225;BMP280;67498;53.650;10.090;2023-05-28T02:35:28;102092.53;;;9.88
78225;BMP280;67498;53.650;10.090;2023-05-28T02:37:53;102079.72;;;9.79
78225;BMP280;67498;53.650;10.090;2023-05-28T02:40:19;102078.25;;;9.78
78225;BMP280;67498;53.650;10.090;2023-05-28T02:42:44;102080.03;;;9.74
78225;BMP280;67498;53.650;10.090;2023-05-28T02:45:09;102086.00;;;9.75
78225;BMP280;67498;53.650;10.090;2023-05-28T02:47:35;102073.59;;;9.68
78225;BMP280;67498;53.650;10.090;2023-05-28T02:50:00;102074.31;;;9.65
78225;BMP280;67498;53.650;10.090;2023-05-28T02:52:25;102078.81;;;9.68
78225;BMP280;67498;53.650;10.090;2023-05-28T02:54:50;102083.28;;;9.68
78225;BMP280;67498;53.650;10.090;2023-05-28T02:57:16;102077.66;;;9.66
78225;BMP280;67498;53.650;10.090;2023-05-28T02:59:41;102069.00;;;9.58
78225;BMP280;67498;53.650;10.090;2023-05-28T03:02:06;102077.28;;;9.64
78225;BMP280;67498;53.650;10.090;2023-05-28T03:04:31;102077.66;;;9.62
78225;BMP280;67498;53.650;10.090;2023-05-28T03:06:57;102091.38;;;9.59
78225;BMP280;67498;53.650;10.090;2023-05-28T03:09:22;102091.03;;;9.60
78225;BMP280;67498;53.650;10.090;2023-05-28T03:11:48;102096.97;;;9.61
78225;BMP280;67498;53.650;10.090;2023-05-28T03:14:13;102085.06;;;9.60
78225;BMP280;67498;53.650;10.090;2023-05-28T03:16:38;102094.78;;;9.63
78225;BMP280;67498;53.650;10.090;2023-05-28T03:19:03;102073.13;;;9.59
78225;BMP280;67498;53.650;10.090;2023-05-28T03:21:29;102091.84;;;9.65
78225;BMP280;67498;53.650;10.090;2023-05-28T03:23:54;102086.22;;;9.66
78225;BMP280;67498;53.650;10.090;2023-05-28T03:26:19;102095.59;;;9.67
78225;BMP280;67498;53.650;10.090;2023-05-28T03:28:45;102092.94;;;9.64
78225;BMP280;67498;53.650;10.090;2023-05-28T03:31:11;102102.28;;;9.65
78225;BMP280;67498;53.650;10.090;2023-05-28T03:33:37;102095.06;;;9.58
78225;BMP280;67498;53.650;10.090;2023-05-28T03:36:02;102101.13;;;9.62
78225;BMP280;67498;53.650;10.090;2023-05-28T03:38:27;102084.97;;;9.56
78225;BMP280;67498;53.650;10.090;2023-05-28T03:40:53;102094.03;;;9.63
78225;BMP280;67498;53.650;10.090;2023-05-28T03:43:18;102089.13;;;9.57
78225;BMP280;67498;53.650;10.090;2023-05-28T03:45:43;102082.78;;;9.58
78225;BMP280;67498;53.650;10.090;2023-05-28T03:48:08;102081.63;;;9.56
78225;BMP280;67498;53.650;10.090;2023-05-28T03:50:34;102080.53;;;9.57
78225;BMP280;67498;53.650;10.090;2023-05-28T03:53:00;102091.03;;;9.60
78225;BMP280;67498;53.650;10.090;2023-05-28T03:55:25;102065.97;;;9.52
78225;BMP280;67498;53.650;10.090;2023-05-28T03:57:50;102071.59;;;9.54
78225;BMP280;67498;53.650;10.090;2023-05-28T04:00:16;102069.25;;;9.49
78225;BMP280;67498;53.650;10.090;2023-05-28T04:02:41;102081.63;;;9.56
78225;BMP280;67498;53.650;10.090;2023-05-28T04:05:07;102072.72;;;9.57
78225;BMP280;67498;53.650;10.090;2023-05-28T04:07:32;102083.59;;;9.63
78225;BMP280;67498;53.650;10.090;2023-05-28T04:09:57;102088.09;;;9.66
78225;BMP280;67498;53.650;10.090;2023-05-28T04:12:23;102073.50;;;9.61
78225;BMP280;67498;53.650;10.090;2023-05-28T04:14:48;102090.03;;;9.69
78225;BMP280;67498;53.650;10.090;2023-05-28T04:17:13;102084.81;;;9.69
78225;BMP280;67498;53.650;10.090;2023-05-28T04:19:39;102070.91;;;9.61
78225;BMP280;67498;53.650;10.090;2023-05-28T04:22:06;102092.72;;;9.76
78225;BMP280;67498;53.650;10.090;2023-05-28T04:24:31;102091.66;;;9.80
78225;BMP280;67498;53.650;10.090;2023-05-28T04:26:56;102093.88;;;9.78
78225;BMP280;67498;53.650;10.090;2023-05-28T04:29:22;102099.56;;;9.88
78225;BMP280;67498;53.650;10.090;2023-05-28T04:31:49;102091.00;;;9.87
78225;BMP280;67498;53.650;10.090;2023-05-28T04:34:15;102089.63;;;9.97
78225;BMP280;67498;53.650;10.090;2023-05-28T04:36:42;102083.75;;;10.00
78225;BMP280;67498;53.650;10.090;2023-05-28T04:39:08;102092.81;;;10.13
78225;BMP280;67498;53.650;10.090;2023-05-28T04:41:33;102083.50;;;10.12
78225;BMP280;67498;53.650;10.090;2023-05-28T04:43:59;102085.06;;;10.17
78225;BMP280;67498;53.650;10.090;2023-05-28T04:46:24;102080.66;;;10.24
78225;BMP280;67498;53.650;10.090;2023-05-28T04:48:51;102072.91;;;10.31
78225;BMP280;67498;53.650;10.090;2023-05-28T04:51:16;102087.19;;;10.45
78225;BMP280;67498;53.650;10.090;2023-05-28T04:53:43;102086.91;;;10.53
78225;BMP280;67498;53.650;10.090;2023-05-28T04:56:08;102082.13;;;10.59
78225;BMP280;67498;53.650;10.090;2023-05-28T04:58:34;102098.75;;;10.81
78225;BMP280;67498;53.650;10.090;2023-05-28T05:01:00;102088.41;;;10.92
78225;BMP280;67498;53.650;10.090;2023-05-28T05:03:25;102083.63;;;11.05
78225;BMP280;67498;53.650;10.090;2023-05-28T05:05:50;102079.63;;;11.18
78225;BMP280;67498;53.650;10.090;2023-05-28T05:08:16;102074.44;;;11.25
78225;BMP280;67498;53.650;10.090;2023-05-28T05:10:41;102088.75;;;11.42
78225;BMP280;67498;53.650;10.090;2023-05-28T05:13:07;102089.91;;;11.52
78225;BMP280;67498;53.650;10.090;2023-05-28T05:15:32;102090.03;;;11.73
78225;BMP280;67498;53.650;10.090;2023-05-28T05:17:58;102081.66;;;12.87
78225;BMP280;67498;53.650;10.090;2023-05-28T05:20:23;102086.03;;;14.24
78225;BMP280;67498;53.650;10.090;2023-05-28T05:22:48;102085.69;;;15.43
78225;BMP280;67498;53.650;10.090;2023-05-28T05:25:14;102082.22;;;16.50
78225;BMP280;67498;53.650;10.090;2023-05-28T05:27:39;102079.41;;;17.01
78225;BMP280;67498;53.650;10.090;2023-05-28T05:30:05;102083.69;;;17.67
78225;BMP280;67498;53.650;10.090;2023-05-28T05:32:31;102082.81;;;18.52
78225;BMP280;67498;53.650;10.090;2023-05-28T05:34:56;102081.19;;;18.83
78225;BMP280;67498;53.650;10.090;2023-05-28T05:37:21;102075.81;;;19.00
78225;BMP280;67498;53.650;10.090;2023-05-28T05:39:47;102092.50;;;18.71
78225;BMP280;67498;53.650;10.090;2023-05-28T05:42:13;102088.50;;;17.88
78225;BMP280;67498;53.650;10.090;2023-05-28T05:44:38;102098.19;;;17.23
78225;BMP280;67498;53.650;10.090;2023-05-28T05:47:03;102087.38;;;16.57
78225;BMP280;67498;53.650;10.090;2023-05-28T05:49:29;102101.59;;;16.16
78225;BMP280;67498;53.650;10.090;2023-05-28T05:51:54;102099.84;;;15.79
78225;BMP280;67498;53.650;10.090;2023-05-28T05:54:19;102110.22;;;15.67
78225;BMP280;67498;53.650;10.090;2023-05-28T05:56:45;102095.56;;;15.62
78225;BMP280;67498;53.650;10.090;2023-05-28T05:59:10;102099.88;;;16.06
78225;BMP280;67498;53.650;10.090;2023-05-28T06:01:35;102098.91;;;16.20
78225;BMP280;67498;53.650;10.090;2023-05-28T06:04:01;102100.13;;;16.15
78225;BMP280;67498;53.650;10.090;2023-05-28T06:06:26;102114.69;;;16.47
78225;BMP280;67498;53.650;10.090;2023-05-28T06:08:52;102108.16;;;16.75
78225;BMP280;67498;53.650;10.090;2023-05-28T06:11:17;102116.41;;;17.73
78225;BMP280;67498;53.650;10.090;2023-05-28T06:13:43;102113.44;;;17.71
78225;BMP280;67498;53.650;10.090;2023-05-28T06:16:08;102117.31;;;17.47
78225;BMP280;67498;53.650;10.090;2023-05-28T06:18:33;102113.16;;;18.31
78225;BMP280;67498;53.650;10.090;2023-05-28T06:20:59;102107.16;;;19.65
78225;BMP280;67498;53.650;10.090;2023-05-28T06:23:25;102097.59;;;20.15
78225;BMP280;67498;53.650;10.090;2023-05-28T06:25:50;102109.72;;;19.56
78225;BMP280;67498;53.650;10.090;2023-05-28T06:28:15;102117.63;;;18.63
78225;BMP280;67498;53.650;10.090;2023-05-28T06:30:41;102117.06;;;17.93
78225;BMP280;67498;53.650;10.090;2023-05-28T06:33:06;102112.63;;;17.38
78225;BMP280;67498;53.650;10.090;2023-05-28T06:35:32;102103.63;;;16.96
78225;BMP280;67498;53.650;10.090;2023-05-28T06:37:58;102098.81;;;16.71
78225;BMP280;67498;53.650;10.090;2023-05-28T06:40:23;102104.38;;;16.96
78225;BMP280;67498;53.650;10.090;2023-05-28T06:42:48;102106.72;;;17.66
78225;BMP280;67498;53.650;10.090;2023-05-28T06:45:14;102112.69;;;18.49
78225;BMP280;67498;53.650;10.090;2023-05-28T06:47:39;102114.34;;;18.88
78225;BMP280;67498;53.650;10.090;2023-05-28T06:50:05;102113.28;;;18.98
78225;BMP280;67498;53.650;10.090;2023-05-28T06:52:30;102116.94;;;19.04
78225;BMP280;67498;53.650;10.090;2023-05-28T06:54:55;102113.72;;;19.09
78225;BMP280;67498;53.650;10.090;2023-05-28T06:57:21;102125.50;;;19.08
78225;BMP280;67498;53.650;10.090;2023-05-28T06:59:46;102124.19;;;19.00
78225;BMP280;67498;53.650;10.090;2023-05-28T07:02:12;102120.75;;;18.87
78225;BMP280;67498;53.650;10.090;2023-05-28T07:04:37;102114.19;;;18.66
78225;BMP280;67498;53.650;10.090;2023-05-28T07:07:03;102114.63;;;18.48
78225;BMP280;67498;53.650;10.090;2023-05-28T07:09:29;102116.56;;;18.31
78225;BMP280;67498;53.650;10.090;2023-05-28T07:11:54;102116.50;;;18.18
78225;BMP280;67498;53.650;10.090;2023-05-28T07:14:20;102131.00;;;18.10
78225;BMP280;67498;53.650;10.090;2023-05-28T07:16:45;102134.09;;;17.92
78225;BMP280;67498;53.650;10.090;2023-05-28T07:19:11;102129.94;;;17.75
78225;BMP280;67498;53.650;10.090;2023-05-28T07:21:36;102131.66;;;17.65
78225;BMP280;67498;53.650;10.090;2023-05-28T07:24:03;102131.34;;;17.63
78225;BMP280;67498;53.650;10.090;2023-05-28T07:26:28;102139.16;;;17.67
78225;BMP280;67498;53.650;10.090;2023-05-28T07:28:53;102133.50;;;17.68
78225;BMP280;67498;53.650;10.090;2023-05-28T07:31:18;102136.78;;;17.73
78225;BMP280;67498;53.650;10.090;2023-05-28T07:33:44;102148.56;;;17.88
78225;BMP280;67498;53.650;10.090;2023-05-28T07:36:09;102148.22;;;18.02
78225;BMP280;67498;53.650;10.090;2023-05-28T07:38:35;102145.09;;;18.24
78225;BMP280;67498;53.650;10.090;2023-05-28T07:41:00;102137.59;;;18.51
78225;BMP280;67498;53.650;10.090;2023-05-28T07:43:25;102139.00;;;18.85
78225;BMP280;67498;53.650;10.090;2023-05-28T07:45:51;102144.16;;;19.17
78225;BMP280;67498;53.650;10.090;2023-05-28T07:48:16;102153.72;;;19.40
78225;BMP280;67498;53.650;10.090;2023-05-28T07:50:41;102130.81;;;19.46
78225;BMP280;67498;53.650;10.090;2023-05-28T07:53:06;102141.31;;;19.63
78225;BMP280;67498;53.650;10.090;2023-05-28T07:55:32;102136.66;;;19.67
78225;BMP280;67498;53.650;10.090;2023-05-28T07:57:57;102134.00;;;19.67
78225;BMP280;67498;53.650;10.090;2023-05-28T08:00:26;102131.00;;;19.78
78225;BMP280;67498;53.650;10.090;2023-05-28T08:02:51;102135.44;;;19.93
78225;BMP280;67498;53.650;10.090;2023-05-28T08:05:17;102126.84;;;20.02
78225;BMP280;67498;53.650;10.090;2023-05-28T08:07:43;102136.78;;;20.11
78225;BMP280;67498;53.650;10.090;2023-05-28T08:10:09;102128.69;;;20.14
78225;BMP280;67498;53.650;10.090;2023-05-28T08:12:34;102133.47;;;20.19
78225;BMP280;67498;53.650;10.090;2023-05-28T08:14:59;102138.28;;;20.34
78225;BMP280;67498;53.650;10.090;2023-05-28T08:17:29;102131.13;;;20.43
78225;BMP280;67498;53.650;10.090;2023-05-28T08:19:55;102126.78;;;20.59
78225;BMP280;67498;53.650;10.090;2023-05-28T08:22:20;102132.97;;;20.77
78225;BMP280;67498;53.650;10.090;2023-05-28T08:24:45;102139.97;;;20.93
78225;BMP280;67498;53.650;10.090;2023-05-28T08:27:11;102141.94;;;21.02
78225;BMP280;67498;53.650;10.090;2023-05-28T08:29:36;102134.91;;;21.08
78225;BMP280;67498;53.650;10.090;2023-05-28T08:32:01;102129.91;;;21.19
78225;BMP280;67498;53.650;10.090;2023-05-28T08:34:26;102132.13;;;21.21
78225;BMP280;67498;53.650;10.090;2023-05-28T08:36:52;102133.59;;;21.13
78225;BMP280;67498;53.650;10.090;2023-05-28T08:39:18;102135.03;;;21.04
78225;BMP280;67498;53.650;10.090;2023-05-28T08:41:44;102134.78;;;21.12
78225;BMP280;67498;53.650;10.090;2023-05-28T08:44:10;102122.63;;;21.11
78225;BMP280;67498;53.650;10.090;2023-05-28T08:46:36;102129.97;;;21.28
78225;BMP280;67498;53.650;10.090;2023-05-28T08:49:02;102120.53;;;21.37
78225;BMP280;67498;53.650;10.090;2023-05-28T08:51:30;102118.50;;;21.50
78225;BMP280;67498;53.650;10.090;2023-05-28T08:53:58;102115.09;;;21.49
78225;BMP280;67498;53.650;10.090;2023-05-28T08:56:24;102120.69;;;21.51
78225;BMP280;67498;53.650;10.090;2023-05-28T08:58:51;102122.78;;;21.56
78225;BMP280;67498;53.650;10.090;2023-05-28T09:01:16;102119.25;;;21.59
78225;BMP280;67498;53.650;10.090;2023-05-28T09:03:42;102111.44;;;21.65
78225;BMP280;67498;53.650;10.090;2023-05-28T09:06:08;102104.63;;;21.64
78225;BMP280;67498;53.650;10.090;2023-05-28T09:08:34;102118.81;;;21.79
78225;BMP280;67498;53.650;10.090;2023-05-28T09:11:12;102107.88;;;21.86
78225;BMP280;67498;53.650;10.090;2023-05-28T09:13:46;102108.50;;;22.00
78225;BMP280;67498;53.650;10.090;2023-05-28T09:16:19;102097.84;;;22.00
78225;BMP280;67498;53.650;10.090;2023-05-28T09:18:48;102107.13;;;22.23
78225;BMP280;67498;53.650;10.090;2023-05-28T09:21:14;102104.03;;;22.33
78225;BMP280;67498;53.650;10.090;2023-05-28T09:23:42;102114.59;;;22.61
78225;BMP280;67498;53.650;10.090;2023-05-28T09:26:09;102099.50;;;22.67
78225;BMP280;67498;53.650;10.090;2023-05-28T09:28:35;102097.91;;;22.84
78225;BMP280;67498;53.650;10.090;2023-05-28T09:31:04;102100.13;;;22.95
78225;BMP280;67498;53.650;10.090;2023-05-28T09:33:31;102105.94;;;23.08
78225;BMP280;67498;53.650;10.090;2023-05-28T09:36:01;102102.38;;;23.11
78225;BMP280;67498;53.650;10.090;2023-05-28T09:38:37;102095.91;;;23.27
78225;BMP280;67498;53.650;10.090;2023-05-28T09:41:04;102104.94;;;23.30
78225;BMP280;67498;53.650;10.090;2023-05-28T09:43:29;102106.88;;;23.05
78225;BMP280;67498;53.650;10.090;2023-05-28T09:46:20;102101.28;;;22.52
78225;BMP280;67498;53.650;10.090;2023-05-28T09:48:46;102106.06;;;22.48
78225;BMP280;67498;53.650;10.090;2023-05-28T09:51:13;102100.91;;;22.77
78225;BMP280;67498;53.650;10.090;2023-05-28T09:53:43;102087.97;;;22.94
78225;BMP280;67498;53.650;10.090;2023-05-28T09:56:09;102096.59;;;23.13
78225;BMP280;67498;53.650;10.090;2023-05-28T09:58:36;102099.50;;;23.24
78225;BMP280;67498;53.650;10.090;2023-05-28T10:01:12;102086.31;;;22.97
78225;BMP280;67498;53.650;10.090;2023-05-28T10:03:42;102087.16;;;22.79
78225;BMP280;67498;53.650;10.090;2023-05-28T10:06:14;102090.22;;;22.86
78225;BMP280;67498;53.650;10.090;2023-05-28T10:08:42;102077.88;;;22.98
78225;BMP280;67498;53.650;10.090;2023-05-28T10:11:10;102085.31;;;23.18
78225;BMP280;67498;53.650;10.090;2023-05-28T10:13:39;102085.78;;;23.40
78225;BMP280;67498;53.650;10.090;2023-05-28T10:16:05;102087.63;;;23.49
78225;BMP280;67498;53.650;10.090;2023-05-28T10:18:30;102083.69;;;23.59
78225;BMP280;67498;53.650;10.090;2023-05-28T10:20:56;102089.03;;;23.59
78225;BMP280;67498;53.650;10.090;2023-05-28T10:23:23;102068.88;;;23.58
78225;BMP280;67498;53.650;10.090;2023-05-28T10:25:49;102086.13;;;23.48
78225;BMP280;67498;53.650;10.090;2023-05-28T10:28:15;102081.63;;;23.15
78225;BMP280;67498;53.650;10.090;2023-05-28T10:30:41;102083.25;;;22.89
78225;BMP280;67498;53.650;10.090;2023-05-28T10:33:14;102084.53;;;22.70
78225;BMP280;67498;53.650;10.090;2023-05-28T10:38:16;102095.81;;;22.55
78225;BMP280;67498;53.650;10.090;2023-05-28T10:40:42;102075.50;;;22.67
78225;BMP280;67498;53.650;10.090;2023-05-28T10:49:13;102081.81;;;23.12
78225;BMP280;67498;53.650;10.090;2023-05-28T10:51:58;102070.31;;;22.97
78225;BMP280;67498;53.650;10.090;2023-05-28T10:57:14;102085.16;;;22.64
78225;BMP280;67498;53.650;10.090;2023-05-28T10:59:50;102087.84;;;22.46
78225;BMP280;67498;53.650;10.090;2023-05-28T11:02:22;102083.41;;;22.52
78225;BMP280;67498;53.650;10.090;2023-05-28T11:04:58;102082.84;;;22.48
78225;BMP280;67498;53.650;10.090;2023-05-28T11:07:39;102076.00;;;22.56
78225;BMP280;67498;53.650;10.090;2023-05-28T11:10:06;102080.31;;;22.87
78225;BMP280;67498;53.650;10.090;2023-05-28T11:12:35;102078.97;;;22.91
78225;BMP280;67498;53.650;10.090;2023-05-28T11:15:01;102081.53;;;22.77
78225;BMP280;67498;53.650;10.090;2023-05-28T11:17:26;102087.66;;;22.59
78225;BMP280;67498;53.650;10.090;2023-05-28T11:19:52;102078.09;;;22.43
78225;BMP280;67498;53.650;10.090;2023-05-28T11:22:19;102071.03;;;22.31
78225;BMP280;67498;53.650;10.090;2023-05-28T11:25:06;102077.25;;;22.28
78225;BMP280;67498;53.650;10.090;2023-05-28T11:27:33;102068.41;;;22.22
78225;BMP280;67498;53.650;10.090;2023-05-28T11:30:01;102069.97;;;22.37
78225;BMP280;67498;53.650;10.090;2023-05-28T11:32:27;102070.00;;;22.71
78225;BMP280;67498;53.650;10.090;2023-05-28T11:34:55;102062.00;;;23.04
78225;BMP280;67498;53.650;10.090;2023-05-28T11:37:25;102063.16;;;23.36
78225;BMP280;67498;53.650;10.090;2023-05-28T11:39:52;102066.22;;;23.58
78225;BMP280;67498;53.650;10.090;2023-05-28T11:42:18;102042.84;;;23.53
78225;BMP280;67498;53.650;10.090;2023-05-28T11:44:47;102051.44;;;23.72
78225;BMP280;67498;53.650;10.090;2023-05-28T11:47:13;102053.38;;;23.86
78225;BMP280;67498;53.650;10.090;2023-05-28T11:49:40;102052.91;;;24.02
78225;BMP280;67498;53.650;10.090;2023-05-28T11:52:10;102057.31;;;24.06
78225;BMP280;67498;53.650;10.090;2023-05-28T11:54:35;102058.13;;;23.82
78225;BMP280;67498;53.650;10.090;2023-05-28T11:57:04;102055.91;;;23.51
78225;BMP280;67498;53.650;10.090;2023-05-28T11:59:30;102065.13;;;23.26
78225;BMP280;67498;53.650;10.090;2023-05-28T12:02:15;102057.59;;;23.25
78225;BMP280;67498;53.650;10.090;2023-05-28T12:04:59;102056.47;;;23.40
78225;BMP280;67498;53.650;10.090;2023-05-28T12:07:29;102052.97;;;23.64
78225;BMP280;67498;53.650;10.090;2023-05-28T12:10:21;102052.72;;;23.91
78225;BMP280;67498;53.650;10.090;2023-05-28T12:12:51;102043.50;;;24.07
78225;BMP280;67498;53.650;10.090;2023-05-28T12:15:21;102044.53;;;24.24
78225;BMP280;67498;53.650;10.090;2023-05-28T12:17:51;102035.75;;;24.39
78225;BMP280;67498;53.650;10.090;2023-05-28T12:22:43;102033.47;;;24.52
78225;BMP280;67498;53.650;10.090;2023-05-28T12:25:09;102035.09;;;24.64
78225;BMP280;67498;53.650;10.090;2023-05-28T12:27:35;102043.25;;;24.75
78225;BMP280;67498;53.650;10.090;2023-05-28T12:30:01;102044.78;;;24.82
78225;BMP280;67498;53.650;10.090;2023-05-28T12:32:26;102041.44;;;24.46
78225;BMP280;67498;53.650;10.090;2023-05-28T12:34:52;102039.28;;;24.00
78225;BMP280;67498;53.650;10.090;2023-05-28T12:37:21;102038.19;;;23.77
78225;BMP280;67498;53.650;10.090;2023-05-28T12:39:47;102041.03;;;23.89
78225;BMP280;67498;53.650;10.090;2023-05-28T12:42:12;102029.81;;;23.99
78225;BMP280;67498;53.650;10.090;2023-05-28T12:44:37;102022.31;;;24.18
78225;BMP280;67498;53.650;10.090;2023-05-28T12:47:03;102028.44;;;24.39
78225;BMP280;67498;53.650;10.090;2023-05-28T12:49:28;102021.91;;;24.40
78225;BMP280;67498;53.650;10.090;2023-05-28T12:51:54;102041.69;;;24.48
78225;BMP280;67498;53.650;10.090;2023-05-28T12:54:19;102033.47;;;24.52
78225;BMP280;67498;53.650;10.090;2023-05-28T12:56:44;102025.28;;;24.55
78225;BMP280;67498;53.650;10.090;2023-05-28T12:59:20;102028.09;;;24.67
78225;BMP280;67498;53.650;10.090;2023-05-28T13:01:45;102030.06;;;24.51
78225;BMP280;67498;53.650;10.090;2023-05-28T13:04:10;102023.06;;;24.19
78225;BMP280;67498;53.650;10.090;2023-05-28T13:07:04;102025.19;;;24.00
78225;BMP280;67498;53.650;10.090;2023-05-28T13:09:29;102018.88;;;23.97
78225;BMP280;67498;53.650;10.090;2023-05-28T13:11:55;102018.19;;;24.17
78225;BMP280;67498;53.650;10.090;2023-05-28T13:14:21;102021.91;;;24.40
78225;BMP280;67498;53.650;10.090;2023-05-28T13:16:46;102030.28;;;24.68
78225;BMP280;67498;53.650;10.090;2023-05-28T13:19:11;102019.47;;;24.77
78225;BMP280;67498;53.650;10.090;2023-05-28T13:21:36;102016.22;;;24.88
78225;BMP280;67498;53.650;10.090;2023-05-28T13:24:02;102015.59;;;24.99
78225;BMP280;67498;53.650;10.090;2023-05-28T13:26:29;102008.78;;;24.98
78225;BMP280;67498;53.650;10.090;2023-05-28T13:28:55;102009.44;;;24.93
78225;BMP280;67498;53.650;10.090;2023-05-28T13:31:20;102004.84;;;24.93
78225;BMP280;67498;53.650;10.090;2023-05-28T13:33:45;102014.38;;;25.00
78225;BMP280;67498;53.650;10.090;2023-05-28T13:36:11;102003.38;;;24.92
78225;BMP280;67498;53.650;10.090;2023-05-28T13:38:36;102015.81;;;24.95
78225;BMP280;67498;53.650;10.090;2023-05-28T13:41:02;101994.31;;;24.90
78225;BMP280;67498;53.650;10.090;2023-05-28T13:43:30;101999.97;;;24.92
78225;BMP280;67498;53.650;10.090;2023-05-28T13:45:55;102005.78;;;24.90
78225;BMP280;67498;53.650;10.090;2023-05-28T13:48:21;101994.31;;;24.90
78225;BMP280;67498;53.650;10.090;2023-05-28T13:50:47;101985.56;;;24.89
78225;BMP280;67498;53.650;10.090;2023-05-28T13:53:12;101991.94;;;24.71
78225;BMP280;67498;53.650;10.090;2023-05-28T13:55:37;101981.69;;;24.29
78225;BMP280;67498;53.650;10.090;2023-05-28T13:58:02;102000.59;;;24.11